sensor_id;sensor_type;location;lat;lon;timestamp;P1;durP1;ratioP1;P2;durP2;ratioP2
84668;SDS011;74897;42.704;23.318;2023-12-28T00:01:05;27.60;;;16.13;;
84668;SDS011;74897;42.704;23.318;2023-12-28T00:03:30;28.00;;;16.88;;
84668;SDS011;74897;42.704;23.318;2023-12-28T00:05:55;33.95;;;18.40;;
84668;SDS011;74897;42.704;23.318;2023-12-28T00:08:21;32.10;;;19.92;;
84668;SDS011;74897;42.704;23.318;2023-12-28T00:10:50;33.42;;;18.90;;
84668;SDS011;74897;42.704;23.318;2023-12-28T00:13:16;34.05;;;22.13;;
84668;SDS011;74897;42.704;23.318;2023-12-28T00:15:41;38.65;;;21.25;;
84668;SDS011;74897;42.704;23.318;2023-12-28T00:18:06;35.13;;;21.45;;
84668;SDS011;74897;42.704;23.318;2023-12-28T00:20:32;34.25;;;19.70;;
84668;SDS011;74897;42.704;23.318;2023-12-28T00:22:57;37.22;;;19.65;;
84668;SDS011;74897;42.704;23.318;2023-12-28T00:25:23;32.95;;;19.10;;
84668;SDS011;74897;42.704;23.318;2023-12-28T00:27:48;33.88;;;18.88;;
84668;SDS011;74897;42.704;23.318;2023-12-28T00:30:14;32.13;;;18.02;;
84668;SDS011;74897;42.704;23.318;2023-12-28T00:32:39;34.47;;;19.55;;
84668;SDS011;74897;42.704;23.318;2023-12-28T00:35:08;35.20;;;20.77;;
84668;SDS011;74897;42.704;23.318;2023-12-28T00:37:33;33.08;;;20.67;;
84668;SDS011;74897;42.704;23.318;2023-12-28T00:39:59;35.88;;;18.73;;
84668;SDS011;74897;42.704;23.318;2023-12-28T00:42:24;31.45;;;20.10;;
84668;SDS011;74897;42.704;23.318;2023-12-28T00:44:49;33.08;;;19.48;;
84668;SDS011;74897;42.704;23.318;2023-12-28T00:47:15;40.88;;;19.05;;
84668;SDS011;74897;42.704;23.318;2023-12-28T00:49:40;33.78;;;18.60;;
84668;SDS011;74897;42.704;23.318;2023-12-28T00:52:05;33.78;;;18.45;;
84668;SDS011;74897;42.704;23.318;2023-12-28T00:54:31;33.03;;;17.35;;
84668;SDS011;74897;42.704;23.318;2023-12-28T00:56:56;30.73;;;18.25;;
84668;SDS011;74897;42.704;23.318;2023-12-28T00:59:21;37.67;;;20.33;;
84668;SDS011;74897;42.704;23.318;2023-12-28T01:01:46;38.65;;;20.73;;
84668;SDS011;74897;42.704;23.318;2023-12-28T01:04:12;36.88;;;20.85;;
84668;SDS011;74897;42.704;23.318;2023-12-28T01:06:37;32.72;;;21.13;;
84668;SDS011;74897;42.704;23.318;2023-12-28T01:09:02;44.92;;;24.58;;
84668;SDS011;74897;42.704;23.318;2023-12-28T01:11:28;43.75;;;21.77;;
84668;SDS011;74897;42.704;23.318;2023-12-28T01:13:54;37.80;;;18.55;;
84668;SDS011;74897;42.704;23.318;2023-12-28T01:16:19;37.17;;;21.55;;
84668;SDS011;74897;42.704;23.318;2023-12-28T01:18:44;36.80;;;20.80;;
84668;SDS011;74897;42.704;23.318;2023-12-28T01:21:10;42.75;;;20.45;;
84668;SDS011;74897;42.704;23.318;2023-12-28T01:23:35;36.95;;;20.25;;
84668;SDS011;74897;42.704;23.318;2023-12-28T01:26:01;41.67;;;21.15;;
84668;SDS011;74897;42.704;23.318;2023-12-28T01:28:26;41.70;;;20.25;;
84668;SDS011;74897;42.704;23.318;2023-12-28T01:30:52;33.33;;;18.73;;
84668;SDS011;74897;42.704;23.318;2023-12-28T01:33:17;33.67;;;19.10;;
84668;SDS011;74897;42.704;23.318;2023-12-28T01:35:42;37.08;;;20.15;;
84668;SDS011;74897;42.704;23.318;2023-12-28T01:38:08;38.25;;;20.50;;
84668;SDS011;74897;42.704;23.318;2023-12-28T01:40:33;35.50;;;18.98;;
84668;SDS011;74897;42.704;23.318;2023-12-28T01:42:58;33.15;;;19.95;;
84668;SDS011;74897;42.704;23.318;2023-12-28T01:45:24;37.40;;;20.23;;
84668;SDS011;74897;42.704;23.318;2023-12-28T01:47:49;38.45;;;20.98;;
84668;SDS011;74897;42.704;23.318;2023-12-28T01:50:15;33.70;;;20.45;;
84668;SDS011;74897;42.704;23.318;2023-12-28T01:52:41;36.20;;;20.58;;
84668;SDS011;74897;42.704;23.318;2023-12-28T01:55:07;30.75;;;19.85;;
84668;SDS011;74897;42.704;23.318;2023-12-28T01:57:33;30.30;;;18.85;;
84668;SDS011;74897;42.704;23.318;2023-12-28T01:59:58;35.35;;;19.42;;
84668;SDS011;74897;42.704;23.318;2023-12-28T02:02:26;30.42;;;19.92;;
84668;SDS011;74897;42.704;23.318;2023-12-28T02:04:51;37.53;;;20.40;;
84668;SDS011;74897;42.704;23.318;2023-12-28T02:07:17;35.67;;;20.70;;
84668;SDS011;74897;42.704;23.318;2023-12-28T02:09:43;36.97;;;20.92;;
84668;SDS011;74897;42.704;23.318;2023-12-28T02:12:08;38.33;;;21.05;;
84668;SDS011;74897;42.704;23.318;2023-12-28T02:14:34;37.63;;;20.38;;
84668;SDS011;74897;42.704;23.318;2023-12-28T02:17:01;34.65;;;18.45;;
84668;SDS011;74897;42.704;23.318;2023-12-28T02:19:32;35.20;;;20.80;;
84668;SDS011;74897;42.704;23.318;2023-12-28T02:22:04;36.13;;;20.45;;
84668;SDS011;74897;42.704;23.318;2023-12-28T02:24:29;37.40;;;21.80;;
84668;SDS011;74897;42.704;23.318;2023-12-28T02:26:54;34.88;;;21.45;;
84668;SDS011;74897;42.704;23.318;2023-12-28T02:29:20;39.50;;;21.08;;
84668;SDS011;74897;42.704;23.318;2023-12-28T02:31:46;38.83;;;21.95;;
84668;SDS011;74897;42.704;23.318;2023-12-28T02:34:16;38.75;;;21.45;;
84668;SDS011;74897;42.704;23.318;2023-12-28T02:36:44;41.65;;;22.60;;
84668;SDS011;74897;42.704;23.318;2023-12-28T02:39:11;41.80;;;22.05;;
84668;SDS011;74897;42.704;23.318;2023-12-28T02:41:39;36.10;;;22.90;;
84668;SDS011;74897;42.704;23.318;2023-12-28T02:44:04;40.92;;;22.75;;
84668;SDS011;74897;42.704;23.318;2023-12-28T02:46:30;39.00;;;22.50;;
84668;SDS011;74897;42.704;23.318;2023-12-28T02:48:55;39.92;;;21.73;;
84668;SDS011;74897;42.704;23.318;2023-12-28T02:51:22;42.50;;;22.25;;
84668;SDS011;74897;42.704;23.318;2023-12-28T02:53:47;35.85;;;21.60;;
84668;SDS011;74897;42.704;23.318;2023-12-28T02:56:13;42.33;;;22.53;;
84668;SDS011;74897;42.704;23.318;2023-12-28T02:58:38;39.53;;;21.48;;
84668;SDS011;74897;42.704;23.318;2023-12-28T03:01:03;44.90;;;23.90;;
84668;SDS011;74897;42.704;23.318;2023-12-28T03:03:29;42.58;;;22.45;;
84668;SDS011;74897;42.704;23.318;2023-12-28T03:05:54;43.85;;;23.25;;
84668;SDS011;74897;42.704;23.318;2023-12-28T03:08:19;44.90;;;22.88;;
84668;SDS011;74897;42.704;23.318;2023-12-28T03:10:45;47.38;;;23.20;;
84668;SDS011;74897;42.704;23.318;2023-12-28T03:13:10;38.35;;;21.08;;
84668;SDS011;74897;42.704;23.318;2023-12-28T03:15:35;42.83;;;21.15;;
84668;SDS011;74897;42.704;23.318;2023-12-28T03:18:01;42.00;;;22.10;;
84668;SDS011;74897;42.704;23.318;2023-12-28T03:20:26;38.40;;;18.90;;
84668;SDS011;74897;42.704;23.318;2023-12-28T03:22:51;36.13;;;19.90;;
84668;SDS011;74897;42.704;23.318;2023-12-28T03:25:16;37.53;;;20.85;;
84668;SDS011;74897;42.704;23.318;2023-12-28T03:27:42;40.83;;;20.52;;
84668;SDS011;74897;42.704;23.318;2023-12-28T03:30:07;38.65;;;20.90;;
84668;SDS011;74897;42.704;23.318;2023-12-28T03:32:33;37.47;;;20.15;;
84668;SDS011;74897;42.704;23.318;2023-12-28T03:34:58;41.38;;;20.58;;
84668;SDS011;74897;42.704;23.318;2023-12-28T03:37:23;32.97;;;20.60;;
84668;SDS011;74897;42.704;23.318;2023-12-28T03:39:49;40.35;;;20.33;;
84668;SDS011;74897;42.704;23.318;2023-12-28T03:42:14;38.50;;;21.00;;
84668;SDS011;74897;42.704;23.318;2023-12-28T03:44:40;40.65;;;19.23;;
84668;SDS011;74897;42.704;23.318;2023-12-28T03:47:05;44.65;;;22.63;;
84668;SDS011;74897;42.704;23.318;2023-12-28T03:49:30;37.67;;;21.67;;
84668;SDS011;74897;42.704;23.318;2023-12-28T03:54:21;40.90;;;19.80;;
84668;SDS011;74897;42.704;23.318;2023-12-28T03:59:11;32.53;;;17.87;;
84668;SDS011;74897;42.704;23.318;2023-12-28T04:01:37;29.92;;;16.23;;
84668;SDS011;74897;42.704;23.318;2023-12-28T04:04:02;36.05;;;20.23;;
84668;SDS011;74897;42.704;23.318;2023-12-28T04:08:52;33.40;;;18.85;;
84668;SDS011;74897;42.704;23.318;2023-12-28T04:11:18;39.47;;;21.42;;
84668;SDS011;74897;42.704;23.318;2023-12-28T04:13:43;42.05;;;23.45;;
84668;SDS011;74897;42.704;23.318;2023-12-28T04:18:34;47.58;;;21.08;;
84668;SDS011;74897;42.704;23.318;2023-12-28T04:23:25;35.17;;;20.10;;
84668;SDS011;74897;42.704;23.318;2023-12-28T04:28:15;32.65;;;17.48;;
84668;SDS011;74897;42.704;23.318;2023-12-28T04:30:40;34.23;;;18.23;;
84668;SDS011;74897;42.704;23.318;2023-12-28T04:35:31;28.70;;;14.77;;
84668;SDS011;74897;42.704;23.318;2023-12-28T04:40:21;30.07;;;16.93;;
84668;SDS011;74897;42.704;23.318;2023-12-28T04:42:47;31.90;;;17.95;;
84668;SDS011;74897;42.704;23.318;2023-12-28T04:45:12;31.13;;;16.73;;
84668;SDS011;74897;42.704;23.318;2023-12-28T04:47:39;32.38;;;19.25;;
84668;SDS011;74897;42.704;23.318;2023-12-28T04:52:29;30.83;;;16.67;;
84668;SDS011;74897;42.704;23.318;2023-12-28T04:57:20;33.20;;;16.90;;
84668;SDS011;74897;42.704;23.318;2023-12-28T05:02:11;51.13;;;23.67;;
84668;SDS011;74897;42.704;23.318;2023-12-28T05:04:37;36.10;;;20.08;;
84668;SDS011;74897;42.704;23.318;2023-12-28T05:07:06;30.48;;;18.42;;
84668;SDS011;74897;42.704;23.318;2023-12-28T05:11:56;32.33;;;17.93;;
84668;SDS011;74897;42.704;23.318;2023-12-28T05:16:47;30.10;;;16.93;;
84668;SDS011;74897;42.704;23.318;2023-12-28T05:21:37;28.80;;;15.52;;
84668;SDS011;74897;42.704;23.318;2023-12-28T05:24:02;29.33;;;17.73;;
84668;SDS011;74897;42.704;23.318;2023-12-28T05:28:53;34.45;;;17.30;;
84668;SDS011;74897;42.704;23.318;2023-12-28T05:31:18;33.97;;;18.30;;
84668;SDS011;74897;42.704;23.318;2023-12-28T05:33:44;36.85;;;19.80;;
84668;SDS011;74897;42.704;23.318;2023-12-28T05:36:09;35.03;;;19.15;;
84668;SDS011;74897;42.704;23.318;2023-12-28T05:38:34;37.10;;;20.85;;
84668;SDS011;74897;42.704;23.318;2023-12-28T05:40:59;46.17;;;22.42;;
84668;SDS011;74897;42.704;23.318;2023-12-28T05:43:25;38.90;;;22.02;;
84668;SDS011;74897;42.704;23.318;2023-12-28T05:48:15;43.47;;;21.17;;
84668;SDS011;74897;42.704;23.318;2023-12-28T05:50:41;62.00;;;27.35;;
84668;SDS011;74897;42.704;23.318;2023-12-28T05:55:31;63.10;;;33.80;;
84668;SDS011;74897;42.704;23.318;2023-12-28T06:00:22;54.65;;;30.33;;
84668;SDS011;74897;42.704;23.318;2023-12-28T06:02:47;49.13;;;27.60;;
84668;SDS011;74897;42.704;23.318;2023-12-28T06:05:16;52.05;;;27.50;;
84668;SDS011;74897;42.704;23.318;2023-12-28T06:10:07;45.83;;;26.83;;
84668;SDS011;74897;42.704;23.318;2023-12-28T06:14:57;47.43;;;25.53;;
84668;SDS011;74897;42.704;23.318;2023-12-28T06:19:48;43.80;;;22.03;;
84668;SDS011;74897;42.704;23.318;2023-12-28T06:22:15;41.85;;;22.40;;
84668;SDS011;74897;42.704;23.318;2023-12-28T06:27:06;42.88;;;22.88;;
84668;SDS011;74897;42.704;23.318;2023-12-28T06:29:31;51.10;;;25.38;;
84668;SDS011;74897;42.704;23.318;2023-12-28T06:31:58;40.53;;;21.98;;
84668;SDS011;74897;42.704;23.318;2023-12-28T06:34:23;41.13;;;24.52;;
84668;SDS011;74897;42.704;23.318;2023-12-28T06:36:49;45.63;;;24.80;;
84668;SDS011;74897;42.704;23.318;2023-12-28T06:39:14;45.72;;;24.55;;
84668;SDS011;74897;42.704;23.318;2023-12-28T06:44:05;48.37;;;26.90;;
84668;SDS011;74897;42.704;23.318;2023-12-28T06:46:30;43.70;;;26.97;;
84668;SDS011;74897;42.704;23.318;2023-12-28T06:48:55;51.33;;;23.80;;
84668;SDS011;74897;42.704;23.318;2023-12-28T06:51:22;48.88;;;27.60;;
84668;SDS011;74897;42.704;23.318;2023-12-28T06:53:48;47.30;;;27.25;;
84668;SDS011;74897;42.704;23.318;2023-12-28T06:56:15;50.75;;;28.90;;
84668;SDS011;74897;42.704;23.318;2023-12-28T06:58:40;52.67;;;28.30;;
84668;SDS011;74897;42.704;23.318;2023-12-28T07:01:06;56.65;;;32.00;;
84668;SDS011;74897;42.704;23.318;2023-12-28T07:03:32;61.85;;;32.33;;
84668;SDS011;74897;42.704;23.318;2023-12-28T07:06:00;52.40;;;30.52;;
84668;SDS011;74897;42.704;23.318;2023-12-28T07:08:26;52.65;;;31.00;;
84668;SDS011;74897;42.704;23.318;2023-12-28T07:10:51;58.17;;;31.75;;
84668;SDS011;74897;42.704;23.318;2023-12-28T07:13:17;54.13;;;32.30;;
84668;SDS011;74897;42.704;23.318;2023-12-28T07:15:42;57.17;;;31.40;;
84668;SDS011;74897;42.704;23.318;2023-12-28T07:18:07;53.67;;;32.20;;
84668;SDS011;74897;42.704;23.318;2023-12-28T07:20:33;52.22;;;30.88;;
84668;SDS011;74897;42.704;23.318;2023-12-28T07:22:58;55.80;;;28.70;;
84668;SDS011;74897;42.704;23.318;2023-12-28T07:25:23;47.47;;;25.77;;
84668;SDS011;74897;42.704;23.318;2023-12-28T07:27:49;43.20;;;26.40;;
84668;SDS011;74897;42.704;23.318;2023-12-28T07:30:14;44.00;;;23.30;;
84668;SDS011;74897;42.704;23.318;2023-12-28T07:32:41;45.35;;;25.13;;
84668;SDS011;74897;42.704;23.318;2023-12-28T07:35:07;42.58;;;24.17;;
84668;SDS011;74897;42.704;23.318;2023-12-28T07:37:32;43.20;;;23.48;;
84668;SDS011;74897;42.704;23.318;2023-12-28T07:39:57;40.58;;;24.08;;
84668;SDS011;74897;42.704;23.318;2023-12-28T07:42:23;38.63;;;24.02;;
84668;SDS011;74897;42.704;23.318;2023-12-28T07:44:48;41.10;;;24.00;;
84668;SDS011;74897;42.704;23.318;2023-12-28T07:47:13;38.63;;;24.52;;
84668;SDS011;74897;42.704;23.318;2023-12-28T07:49:40;39.38;;;24.23;;
84668;SDS011;74897;42.704;23.318;2023-12-28T07:52:05;37.30;;;22.13;;
84668;SDS011;74897;42.704;23.318;2023-12-28T07:54:30;36.65;;;22.90;;
84668;SDS011;74897;42.704;23.318;2023-12-28T07:56:56;38.97;;;22.85;;
84668;SDS011;74897;42.704;23.318;2023-12-28T07:59:21;39.13;;;23.02;;
84668;SDS011;74897;42.704;23.318;2023-12-28T08:01:48;44.28;;;22.27;;
84668;SDS011;74897;42.704;23.318;2023-12-28T08:04:13;42.47;;;21.98;;
84668;SDS011;74897;42.704;23.318;2023-12-28T08:06:38;38.88;;;22.75;;
84668;SDS011;74897;42.704;23.318;2023-12-28T08:09:04;45.00;;;23.15;;
84668;SDS011;74897;42.704;23.318;2023-12-28T08:11:29;34.25;;;20.92;;
84668;SDS011;74897;42.704;23.318;2023-12-28T08:13:54;36.85;;;21.45;;
84668;SDS011;74897;42.704;23.318;2023-12-28T08:16:20;37.73;;;22.67;;
84668;SDS011;74897;42.704;23.318;2023-12-28T08:18:45;36.30;;;20.42;;
84668;SDS011;74897;42.704;23.318;2023-12-28T08:21:10;35.83;;;21.90;;
84668;SDS011;74897;42.704;23.318;2023-12-28T08:23:38;35.13;;;22.80;;
84668;SDS011;74897;42.704;23.318;2023-12-28T08:26:03;40.10;;;23.17;;
84668;SDS011;74897;42.704;23.318;2023-12-28T08:28:30;36.90;;;22.58;;
84668;SDS011;74897;42.704;23.318;2023-12-28T08:30:57;43.75;;;23.30;;
84668;SDS011;74897;42.704;23.318;2023-12-28T08:33:22;37.95;;;22.13;;
84668;SDS011;74897;42.704;23.318;2023-12-28T08:35:48;37.67;;;23.00;;
84668;SDS011;74897;42.704;23.318;2023-12-28T08:38:13;35.40;;;21.90;;
84668;SDS011;74897;42.704;23.318;2023-12-28T08:40:39;34.45;;;20.20;;
84668;SDS011;74897;42.704;23.318;2023-12-28T08:43:04;40.05;;;23.80;;
84668;SDS011;74897;42.704;23.318;2023-12-28T08:45:30;45.83;;;25.17;;
84668;SDS011;74897;42.704;23.318;2023-12-28T08:47:56;45.33;;;26.05;;
84668;SDS011;74897;42.704;23.318;2023-12-28T08:50:21;59.00;;;32.43;;
84668;SDS011;74897;42.704;23.318;2023-12-28T08:52:47;57.17;;;33.10;;
84668;SDS011;74897;42.704;23.318;2023-12-28T08:55:12;64.72;;;35.15;;
84668;SDS011;74897;42.704;23.318;2023-12-28T08:57:37;66.28;;;35.33;;
84668;SDS011;74897;42.704;23.318;2023-12-28T09:00:04;58.50;;;36.10;;
84668;SDS011;74897;42.704;23.318;2023-12-28T09:02:30;58.60;;;34.88;;
84668;SDS011;74897;42.704;23.318;2023-12-28T09:04:55;58.15;;;34.92;;
84668;SDS011;74897;42.704;23.318;2023-12-28T09:07:20;54.28;;;32.90;;
84668;SDS011;74897;42.704;23.318;2023-12-28T09:09:46;53.55;;;31.35;;
84668;SDS011;74897;42.704;23.318;2023-12-28T09:12:11;54.15;;;31.38;;
84668;SDS011;74897;42.704;23.318;2023-12-28T09:14:37;67.63;;;37.85;;
84668;SDS011;74897;42.704;23.318;2023-12-28T09:17:02;65.88;;;36.80;;
84668;SDS011;74897;42.704;23.318;2023-12-28T09:19:28;68.25;;;38.30;;
84668;SDS011;74897;42.704;23.318;2023-12-28T09:21:53;59.00;;;34.53;;
84668;SDS011;74897;42.704;23.318;2023-12-28T09:24:19;62.22;;;36.28;;
84668;SDS011;74897;42.704;23.318;2023-12-28T09:26:44;65.22;;;38.60;;
84668;SDS011;74897;42.704;23.318;2023-12-28T09:29:10;69.03;;;37.08;;
84668;SDS011;74897;42.704;23.318;2023-12-28T09:31:36;66.10;;;37.08;;
84668;SDS011;74897;42.704;23.318;2023-12-28T09:34:02;56.90;;;34.63;;
84668;SDS011;74897;42.704;23.318;2023-12-28T09:36:29;60.25;;;35.65;;
84668;SDS011;74897;42.704;23.318;2023-12-28T09:38:55;61.10;;;39.05;;
84668;SDS011;74897;42.704;23.318;2023-12-28T09:41:21;65.07;;;38.17;;
84668;SDS011;74897;42.704;23.318;2023-12-28T09:46:12;65.85;;;37.17;;
84668;SDS011;74897;42.704;23.318;2023-12-28T09:48:38;63.05;;;38.22;;
84668;SDS011;74897;42.704;23.318;2023-12-28T09:51:07;60.17;;;36.22;;
84668;SDS011;74897;42.704;23.318;2023-12-28T09:53:35;60.72;;;35.25;;
84668;SDS011;74897;42.704;23.318;2023-12-28T09:56:01;64.72;;;36.72;;
84668;SDS011;74897;42.704;23.318;2023-12-28T09:58:28;53.42;;;33.63;;
84668;SDS011;74897;42.704;23.318;2023-12-28T10:00:54;63.60;;;38.45;;
84668;SDS011;74897;42.704;23.318;2023-12-28T10:03:20;54.45;;;33.28;;
84668;SDS011;74897;42.704;23.318;2023-12-28T10:05:45;58.97;;;35.03;;
84668;SDS011;74897;42.704;23.318;2023-12-28T10:08:12;55.55;;;34.38;;
84668;SDS011;74897;42.704;23.318;2023-12-28T10:10:40;53.45;;;33.58;;
84668;SDS011;74897;42.704;23.318;2023-12-28T10:13:06;59.03;;;32.70;;
84668;SDS011;74897;42.704;23.318;2023-12-28T10:15:32;54.08;;;33.03;;
84668;SDS011;74897;42.704;23.318;2023-12-28T10:17:57;54.58;;;33.00;;
84668;SDS011;74897;42.704;23.318;2023-12-28T10:20:26;59.70;;;33.43;;
84668;SDS011;74897;42.704;23.318;2023-12-28T10:22:51;54.28;;;31.52;;
84668;SDS011;74897;42.704;23.318;2023-12-28T10:25:17;55.45;;;32.58;;
84668;SDS011;74897;42.704;23.318;2023-12-28T10:27:43;54.03;;;31.05;;
84668;SDS011;74897;42.704;23.318;2023-12-28T10:30:09;54.38;;;32.08;;
84668;SDS011;74897;42.704;23.318;2023-12-28T10:32:40;50.83;;;31.27;;
84668;SDS011;74897;42.704;23.318;2023-12-28T10:35:06;52.58;;;31.15;;
84668;SDS011;74897;42.704;23.318;2023-12-28T10:37:32;48.85;;;27.33;;
84668;SDS011;74897;42.704;23.318;2023-12-28T10:39:58;52.97;;;32.47;;
84668;SDS011;74897;42.704;23.318;2023-12-28T10:42:42;51.28;;;31.63;;
84668;SDS011;74897;42.704;23.318;2023-12-28T10:45:11;49.60;;;30.95;;
84668;SDS011;74897;42.704;23.318;2023-12-28T10:47:41;41.53;;;29.17;;
84668;SDS011;74897;42.704;23.318;2023-12-28T10:50:07;47.25;;;29.20;;
84668;SDS011;74897;42.704;23.318;2023-12-28T10:52:33;45.08;;;27.67;;
84668;SDS011;74897;42.704;23.318;2023-12-28T10:55:17;47.95;;;28.00;;
84668;SDS011;74897;42.704;23.318;2023-12-28T10:57:54;47.38;;;29.08;;
84668;SDS011;74897;42.704;23.318;2023-12-28T11:00:24;47.13;;;28.85;;
84668;SDS011;74897;42.704;23.318;2023-12-28T11:02:53;45.72;;;28.35;;
84668;SDS011;74897;42.704;23.318;2023-12-28T11:05:21;44.67;;;28.92;;
84668;SDS011;74897;42.704;23.318;2023-12-28T11:07:47;43.30;;;26.98;;
84668;SDS011;74897;42.704;23.318;2023-12-28T11:10:14;42.97;;;24.65;;
84668;SDS011;74897;42.704;23.318;2023-12-28T11:12:42;42.63;;;28.20;;
84668;SDS011;74897;42.704;23.318;2023-12-28T11:15:08;43.45;;;27.48;;
84668;SDS011;74897;42.704;23.318;2023-12-28T11:17:35;43.08;;;27.40;;
84668;SDS011;74897;42.704;23.318;2023-12-28T11:20:01;44.72;;;24.70;;
84668;SDS011;74897;42.704;23.318;2023-12-28T11:22:28;41.67;;;25.75;;
84668;SDS011;74897;42.704;23.318;2023-12-28T11:24:54;43.00;;;25.73;;
84668;SDS011;74897;42.704;23.318;2023-12-28T11:27:21;38.47;;;24.52;;
84668;SDS011;74897;42.704;23.318;2023-12-28T11:29:49;45.75;;;27.35;;
84668;SDS011;74897;42.704;23.318;2023-12-28T11:32:17;44.58;;;27.35;;
84668;SDS011;74897;42.704;23.318;2023-12-28T11:34:44;39.13;;;25.17;;
84668;SDS011;74897;42.704;23.318;2023-12-28T11:37:12;34.22;;;22.40;;
84668;SDS011;74897;42.704;23.318;2023-12-28T11:39:39;39.00;;;24.33;;
84668;SDS011;74897;42.704;23.318;2023-12-28T11:42:05;34.53;;;20.30;;
84668;SDS011;74897;42.704;23.318;2023-12-28T11:44:31;36.67;;;22.08;;
84668;SDS011;74897;42.704;23.318;2023-12-28T11:47:10;36.88;;;24.08;;
84668;SDS011;74897;42.704;23.318;2023-12-28T11:49:35;32.95;;;21.67;;
84668;SDS011;74897;42.704;23.318;2023-12-28T11:52:01;33.95;;;21.40;;
84668;SDS011;74897;42.704;23.318;2023-12-28T11:54:26;35.17;;;22.90;;
84668;SDS011;74897;42.704;23.318;2023-12-28T11:59:35;38.60;;;23.85;;
84668;SDS011;74897;42.704;23.318;2023-12-28T12:02:03;38.13;;;22.85;;
84668;SDS011;74897;42.704;23.318;2023-12-28T12:04:33;39.28;;;23.27;;
84668;SDS011;74897;42.704;23.318;2023-12-28T12:07:00;40.35;;;25.33;;
84668;SDS011;74897;42.704;23.318;2023-12-28T12:09:26;34.70;;;22.13;;
84668;SDS011;74897;42.704;23.318;2023-12-28T12:11:51;37.00;;;23.13;;
84668;SDS011;74897;42.704;23.318;2023-12-28T12:14:17;37.88;;;24.00;;
84668;SDS011;74897;42.704;23.318;2023-12-28T12:16:43;43.45;;;25.05;;
84668;SDS011;74897;42.704;23.318;2023-12-28T12:19:08;37.67;;;24.25;;
84668;SDS011;74897;42.704;23.318;2023-12-28T12:21:34;36.70;;;24.15;;
84668;SDS011;74897;42.704;23.318;2023-12-28T12:24:00;36.85;;;24.65;;
84668;SDS011;74897;42.704;23.318;2023-12-28T12:26:26;38.28;;;23.30;;
84668;SDS011;74897;42.704;23.318;2023-12-28T12:28:51;36.03;;;22.98;;
84668;SDS011;74897;42.704;23.318;2023-12-28T12:31:17;42.17;;;25.33;;
84668;SDS011;74897;42.704;23.318;2023-12-28T12:33:42;34.30;;;22.20;;
84668;SDS011;74897;42.704;23.318;2023-12-28T12:36:08;36.38;;;23.35;;
84668;SDS011;74897;42.704;23.318;2023-12-28T12:38:34;31.40;;;22.50;;
84668;SDS011;74897;42.704;23.318;2023-12-28T12:40:59;34.70;;;21.98;;
84668;SDS011;74897;42.704;23.318;2023-12-28T12:43:25;40.47;;;24.00;;
84668;SDS011;74897;42.704;23.318;2023-12-28T12:45:51;36.97;;;24.40;;
84668;SDS011;74897;42.704;23.318;2023-12-28T12:48:17;34.80;;;23.25;;
84668;SDS011;74897;42.704;23.318;2023-12-28T12:50:43;38.08;;;25.48;;
84668;SDS011;74897;42.704;23.318;2023-12-28T12:53:08;38.90;;;27.05;;
84668;SDS011;74897;42.704;23.318;2023-12-28T12:55:33;39.58;;;29.35;;
84668;SDS011;74897;42.704;23.318;2023-12-28T12:57:58;41.70;;;28.30;;
84668;SDS011;74897;42.704;23.318;2023-12-28T13:00:24;45.08;;;27.70;;
84668;SDS011;74897;42.704;23.318;2023-12-28T13:02:50;42.20;;;28.45;;
84668;SDS011;74897;42.704;23.318;2023-12-28T13:05:17;39.92;;;27.33;;
84668;SDS011;74897;42.704;23.318;2023-12-28T13:07:42;35.10;;;26.17;;
84668;SDS011;74897;42.704;23.318;2023-12-28T13:10:07;37.00;;;25.48;;
84668;SDS011;74897;42.704;23.318;2023-12-28T13:12:33;42.33;;;26.77;;
84668;SDS011;74897;42.704;23.318;2023-12-28T13:14:58;36.95;;;27.40;;
84668;SDS011;74897;42.704;23.318;2023-12-28T13:17:23;38.42;;;26.98;;
84668;SDS011;74897;42.704;23.318;2023-12-28T13:19:49;34.92;;;24.17;;
84668;SDS011;74897;42.704;23.318;2023-12-28T13:22:14;32.80;;;23.75;;
84668;SDS011;74897;42.704;23.318;2023-12-28T13:24:39;33.08;;;23.17;;
84668;SDS011;74897;42.704;23.318;2023-12-28T13:27:05;29.88;;;21.33;;
84668;SDS011;74897;42.704;23.318;2023-12-28T13:29:30;35.28;;;24.67;;
84668;SDS011;74897;42.704;23.318;2023-12-28T13:31:55;34.38;;;23.67;;
84668;SDS011;74897;42.704;23.318;2023-12-28T13:34:21;33.20;;;23.63;;
84668;SDS011;74897;42.704;23.318;2023-12-28T13:36:47;34.00;;;24.92;;
84668;SDS011;74897;42.704;23.318;2023-12-28T13:39:13;35.67;;;22.52;;
84668;SDS011;74897;42.704;23.318;2023-12-28T13:41:40;33.55;;;23.50;;
84668;SDS011;74897;42.704;23.318;2023-12-28T13:44:06;32.38;;;24.75;;
84668;SDS011;74897;42.704;23.318;2023-12-28T13:46:35;26.35;;;20.95;;
84668;SDS011;74897;42.704;23.318;2023-12-28T13:49:00;27.80;;;23.42;;
84668;SDS011;74897;42.704;23.318;2023-12-28T13:51:27;28.98;;;21.40;;
84668;SDS011;74897;42.704;23.318;2023-12-28T13:53:52;29.13;;;23.08;;
84668;SDS011;74897;42.704;23.318;2023-12-28T13:56:18;31.10;;;22.40;;
84668;SDS011;74897;42.704;23.318;2023-12-28T13:58:43;27.33;;;21.50;;
84668;SDS011;74897;42.704;23.318;2023-12-28T14:01:09;33.80;;;23.48;;
84668;SDS011;74897;42.704;23.318;2023-12-28T14:03:34;32.70;;;22.95;;
84668;SDS011;74897;42.704;23.318;2023-12-28T14:06:00;26.17;;;21.65;;
84668;SDS011;74897;42.704;23.318;2023-12-28T14:08:25;29.83;;;21.20;;
84668;SDS011;74897;42.704;23.318;2023-12-28T14:10:50;31.65;;;23.25;;
84668;SDS011;74897;42.704;23.318;2023-12-28T14:13:16;29.98;;;22.10;;
84668;SDS011;74897;42.704;23.318;2023-12-28T14:15:41;33.75;;;23.33;;
84668;SDS011;74897;42.704;23.318;2023-12-28T14:18:06;35.42;;;22.10;;
84668;SDS011;74897;42.704;23.318;2023-12-28T14:20:34;36.45;;;24.20;;
84668;SDS011;74897;42.704;23.318;2023-12-28T14:22:59;33.75;;;25.02;;
84668;SDS011;74897;42.704;23.318;2023-12-28T14:25:25;34.65;;;23.23;;
84668;SDS011;74897;42.704;23.318;2023-12-28T14:27:50;35.25;;;24.65;;
84668;SDS011;74897;42.704;23.318;2023-12-28T14:30:16;36.38;;;25.58;;
84668;SDS011;74897;42.704;23.318;2023-12-28T14:32:42;38.97;;;23.05;;
84668;SDS011;74897;42.704;23.318;2023-12-28T14:35:08;41.03;;;25.45;;
84668;SDS011;74897;42.704;23.318;2023-12-28T14:37:33;39.03;;;26.65;;
84668;SDS011;74897;42.704;23.318;2023-12-28T14:39:58;36.90;;;25.27;;
84668;SDS011;74897;42.704;23.318;2023-12-28T14:42:24;38.20;;;27.10;;
84668;SDS011;74897;42.704;23.318;2023-12-28T14:44:49;37.92;;;25.88;;
84668;SDS011;74897;42.704;23.318;2023-12-28T14:47:16;41.05;;;25.65;;
84668;SDS011;74897;42.704;23.318;2023-12-28T14:49:41;35.28;;;25.58;;
84668;SDS011;74897;42.704;23.318;2023-12-28T14:52:07;41.53;;;27.00;;
84668;SDS011;74897;42.704;23.318;2023-12-28T14:54:32;42.53;;;26.73;;
84668;SDS011;74897;42.704;23.318;2023-12-28T14:56:57;48.42;;;27.45;;
84668;SDS011;74897;42.704;23.318;2023-12-28T14:59:23;48.72;;;28.05;;
84668;SDS011;74897;42.704;23.318;2023-12-28T15:01:49;39.47;;;25.37;;